Time;durP1;ratioP1;P1;durP2;ratioP2;P2;SDS_P1;SDS_P2;PMS_P1;PMS_P2;Temp;Humidity;BMP_temperature;BMP_pressure;BME280_temperature;BME280_humidity;BME280_pressure;Samples;Min_cycle;Max_cycle;Signal;HPM_P1;HPM_P2
2022/12/21 00:02:02;;;;;;;;;;;;;;;-15.90;52.35;96725.88;6297285;28;19924;-68
2022/12/21 00:05:03;;;;;;;;;;;;;;;-16.06;52.33;96731.16;6297352;28;20386;-67
2022/12/21 00:08:09;;;;;;;;;;;;;;;-16.18;52.58;96735.78;6297143;28;19921;-67
2022/12/21 00:11:10;;;;;;;;;;;;;;;-16.24;52.63;96738.09;6296268;28;20303;-67
2022/12/21 00:14:14;;;;;;;;;;;;;;;-16.30;52.70;96729.50;6297096;28;19916;-68
2022/12/21 00:17:15;;;;;;;;;;;;;;;-16.31;52.54;96734.47;6296856;28;19920;-66
2022/12/21 00:20:16;;;;;;;;;;;;;;;-16.25;52.76;96734.69;6296250;28;20926;-68
2022/12/21 00:23:19;;;;;;;;;;;;;;;-16.07;52.78;96737.88;6296953;28;20380;-68
2022/12/21 00:26:23;;;;;;;;;;;;;;;-15.80;52.66;96724.50;6296873;28;20332;-67
2022/12/21 00:29:26;;;;;;;;;;;;;;;-15.57;52.93;96721.88;6296160;28;20026;-68
2022/12/21 00:32:27;;;;;;;;;;;;;;;-15.48;52.55;96715.50;6296487;28;19920;-68
2022/12/21 00:35:28;;;;;;;;;;;;;;;-15.26;52.90;96721.22;6295494;28;19920;-67
2022/12/21 00:38:29;;;;;;;;;;;;;;;-15.19;52.59;96720.63;6296516;28;20404;-68
2022/12/21 00:41:32;;;;;;;;;;;;;;;-15.23;52.66;96721.31;6296566;28;19920;-67
2022/12/21 00:44:33;;;;;;;;;;;;;;;-15.13;52.94;96725.84;6294895;28;19920;-67
2022/12/21 00:47:34;;;;;;;;;;;;;;;-15.20;53.01;96718.88;6294407;28;20026;-68
2022/12/21 00:50:38;;;;;;;;;;;;;;;-15.13;52.85;96715.75;6296341;28;20381;-68
2022/12/21 00:53:42;;;;;;;;;;;;;;;-15.18;52.84;96712.22;6295545;28;19959;-68
2022/12/21 00:56:45;;;;;;;;;;;;;;;-15.09;52.93;96707.47;6296159;28;19923;-67
2022/12/21 00:59:49;;;;;;;;;;;;;;;-15.01;53.20;96708.56;6296448;28;19920;-67
2022/12/21 01:02:52;;;;;;;;;;;;;;;-14.85;53.28;96712.44;6296333;28;19916;-68
2022/12/21 01:05:55;;;;;;;;;;;;;;;-14.86;52.98;96712.38;6296181;28;19927;-67
2022/12/21 01:08:57;;;;;;;;;;;;;;;-15.00;53.26;96705.25;6295872;28;19920;-68
2022/12/21 01:11:58;;;;;;;;;;;;;;;-15.17;53.61;96703.84;6295586;28;19916;-68
2022/12/21 01:14:59;;;;;;;;;;;;;;;-15.20;53.44;96703.75;6295332;28;20022;-68
2022/12/21 01:18:03;;;;;;;;;;;;;;;-15.23;53.55;96703.66;6296152;28;20389;-68
2022/12/21 01:21:04;;;;;;;;;;;;;;;-15.30;53.61;96701.75;6294942;28;20394;-68
2022/12/21 01:24:10;;;;;;;;;;;;;;;-15.18;53.74;96702.13;6295955;28;20390;-68
2022/12/21 01:27:10;;;;;;;;;;;;;;;-15.23;53.53;96694.41;6295901;28;20298;-68
2022/12/21 01:30:12;;;;;;;;;;;;;;;-15.11;53.74;96698.13;6295180;28;19931;-67
2022/12/21 01:33:16;;;;;;;;;;;;;;;-14.96;53.81;96709.56;6295961;28;19920;-67
2022/12/21 01:36:22;;;;;;;;;;;;;;;-14.91;53.88;96701.31;6295486;28;20394;-67
2022/12/21 01:39:28;;;;;;;;;;;;;;;-14.94;53.42;96707.97;6295729;28;19920;-67
2022/12/21 01:42:31;;;;;;;;;;;;;;;-14.67;53.73;96714.66;6295751;28;19924;-67
2022/12/21 01:45:35;;;;;;;;;;;;;;;-14.88;53.58;96709.81;6295645;28;19920;-67
2022/12/21 01:48:43;;;;;;;;;;;;;;;-14.67;53.77;96709.59;6295730;28;19920;-69
2022/12/21 01:51:49;;;;;;;;;;;;;;;-14.64;53.35;96707.16;6295413;28;19921;-67
2022/12/21 01:54:56;;;;;;;;;;;;;;;-14.72;53.88;96704.44;6294984;28;20572;-68
2022/12/21 01:58:01;;;;;;;;;;;;;;;-14.64;54.16;96698.72;6295532;28;19982;-66
2022/12/21 02:01:03;;;;;;;;;;;;;;;-14.58;53.34;96692.19;6295049;28;20385;-68
2022/12/21 02:04:07;;;;;;;;;;;;;;;-14.74;53.46;96692.56;6295102;28;19920;-68
2022/12/21 02:07:10;;;;;;;;;;;;;;;-14.85;53.88;96701.47;6294747;28;19928;-67
2022/12/21 02:10:14;;;;;;;;;;;;;;;-14.94;53.86;96697.00;6295250;28;20095;-68
2022/12/21 02:13:15;;;;;;;;;;;;;;;-14.97;53.97;96697.78;6294765;28;19920;-67
2022/12/21 02:16:22;;;;;;;;;;;;;;;-14.81;54.42;96693.19;6294934;28;20286;-67
2022/12/21 02:19:36;;;;;;;;;;;;;;;-14.78;53.81;96696.66;6295330;28;19920;-68
2022/12/21 02:22:55;;;;;;;;;;;;;;;-14.66;53.97;96688.59;6294846;28;19920;-67
2022/12/21 02:26:17;;;;;;;;;;;;;;;-14.57;53.70;96683.81;6294814;28;19920;-67
2022/12/21 02:29:19;;;;;;;;;;;;;;;-14.68;53.45;96685.16;6294012;28;19920;-68
2022/12/21 02:32:26;;;;;;;;;;;;;;;-14.60;53.38;96682.88;6295255;28;20417;-67
2022/12/21 02:35:35;;;;;;;;;;;;;;;-14.47;52.99;96685.75;6299140;28;19967;-67
2022/12/21 02:38:39;;;;;;;;;;;;;;;-14.57;53.18;96678.75;6298681;28;19920;-68
2022/12/21 02:42:02;;;;;;;;;;;;;;;-14.65;53.48;96684.41;6299052;28;19916;-68
2022/12/21 02:45:17;;;;;;;;;;;;;;;-14.68;53.56;96687.69;6299238;28;19920;-67
2022/12/21 02:48:51;;;;;;;;;;;;;;;-14.56;53.60;96684.66;6298149;28;19920;-67
2022/12/21 02:52:02;;;;;;;;;;;;;;;-14.43;54.10;96678.25;6265064;28;19921;-67
2022/12/21 02:55:09;;;;;;;;;;;;;;;-14.55;54.16;96686.38;6298713;28;19920;-67
2022/12/21 02:58:12;;;;;;;;;;;;;;;-14.73;54.43;96681.63;6298572;28;19943;-67
2022/12/21 03:01:28;;;;;;;;;;;;;;;-14.78;54.16;96673.06;6298227;28;19920;-67
2022/12/21 03:04:32;;;;;;;;;;;;;;;-14.87;54.30;96668.59;6298623;28;19920;-68
2022/12/21 03:07:45;;;;;;;;;;;;;;;-14.89;54.82;96669.34;6298654;28;19921;-67
2022/12/21 03:10:46;;;;;;;;;;;;;;;-14.49;54.62;96658.72;6297884;28;20417;-68
2022/12/21 03:14:11;;;;;;;;;;;;;;;-14.48;55.01;96662.97;6298311;28;19924;-69
2022/12/21 03:17:20;;;;;;;;;;;;;;;-14.29;54.12;96654.25;6298616;28;19920;-67
2022/12/21 03:20:29;;;;;;;;;;;;;;;-14.23;54.57;96658.63;6297894;28;19920;-67
2022/12/21 03:23:33;;;;;;;;;;;;;;;-14.13;53.84;96661.41;6297968;28;19926;-67
2022/12/21 03:26:38;;;;;;;;;;;;;;;-13.89;54.04;96673.88;6297864;28;19920;-68
2022/12/21 03:29:47;;;;;;;;;;;;;;;-13.61;54.23;96677.97;6297766;28;19920;-68
2022/12/21 03:32:52;;;;;;;;;;;;;;;-13.69;53.83;96668.47;6297710;28;19916;-68
2022/12/21 03:35:58;;;;;;;;;;;;;;;-13.61;53.96;96677.97;6296860;28;19920;-68
2022/12/21 03:39:06;;;;;;;;;;;;;;;-13.66;53.61;96671.94;6297662;28;19920;-68
2022/12/21 03:42:16;;;;;;;;;;;;;;;-13.60;54.07;96677.13;6297686;28;19920;-68
2022/12/21 03:45:20;;;;;;;;;;;;;;;-13.66;53.87;96677.00;6295985;28;20409;-67
2022/12/21 03:48:26;;;;;;;;;;;;;;;-13.69;54.01;96669.31;6297176;28;19920;-67
2022/12/21 03:51:49;;;;;;;;;;;;;;;-13.70;54.17;96672.69;6296912;28;19993;-67
2022/12/21 03:55:01;;;;;;;;;;;;;;;-13.65;54.39;96680.38;6297413;28;19920;-68
2022/12/21 03:58:04;;;;;;;;;;;;;;;-13.68;54.85;96680.28;6297025;28;19927;-68
2022/12/21 04:01:15;;;;;;;;;;;;;;;-13.50;54.81;96675.72;6296666;28;20064;-68
2022/12/21 04:04:25;;;;;;;;;;;;;;;-13.42;54.77;96678.41;6296534;28;19920;-67
2022/12/21 04:07:27;;;;;;;;;;;;;;;-13.65;55.02;96671.09;6296468;28;20312;-68
2022/12/21 04:10:33;;;;;;;;;;;;;;;-13.67;55.37;96677.81;6297343;28;19920;-68
2022/12/21 04:13:34;;;;;;;;;;;;;;;-13.78;55.92;96666.56;6296633;28;20308;-68
2022/12/21 04:16:38;;;;;;;;;;;;;;;-13.77;55.38;96665.75;6297146;28;20301;-67
2022/12/21 04:19:59;;;;;;;;;;;;;;;-13.79;55.58;96667.38;6296498;28;19924;-68
2022/12/21 04:29:40;;;;;;;;;;;;;;;-13.97;56.27;96682.06;6296070;28;19925;-67
2022/12/21 04:32:42;;;;;;;;;;;;;;;-13.90;56.11;96710.06;6296297;28;19928;-67
2022/12/21 04:39:09;;;;;;;;;;;;;;;-13.88;55.61;96682.31;6295649;28;19927;-67
2022/12/21 04:42:11;;;;;;;;;;;;;;;-14.33;56.33;96678.56;6296208;28;19925;-68
2022/12/21 04:45:15;;;;;;;;;;;;;;;-14.22;56.54;96680.53;6294852;28;19931;-68
2022/12/21 04:48:16;;;;;;;;;;;;;;;-14.33;56.73;96681.09;6295916;28;19921;-69
2022/12/21 04:51:24;;;;;;;;;;;;;;;-14.34;56.99;96694.53;6295790;28;19962;-67
2022/12/21 04:54:27;;;;;;;;;;;;;;;-14.17;56.51;96684.91;6294966;28;20382;-68
2022/12/21 04:57:31;;;;;;;;;;;;;;;-14.26;56.27;96689.72;6295852;28;19924;-68
2022/12/21 05:00:32;;;;;;;;;;;;;;;-14.37;56.69;96680.97;6295483;28;19982;-68
2022/12/21 05:03:38;;;;;;;;;;;;;;;-14.28;56.95;96673.63;6295798;28;20290;-68
2022/12/21 05:06:39;;;;;;;;;;;;;;;-14.21;56.84;96679.72;6295268;28;19920;-68
2022/12/21 05:09:42;;;;;;;;;;;;;;;-14.25;56.91;96687.22;6296088;28;20389;-67
2022/12/21 05:12:46;;;;;;;;;;;;;;;-14.26;56.54;96684.66;6295692;28;20023;-67
2022/12/21 05:15:52;;;;;;;;;;;;;;;-14.18;56.53;96685.72;6296162;28;19920;-68
2022/12/21 05:18:53;;;;;;;;;;;;;;;-14.29;56.50;96694.69;6295442;28;19920;-68
2022/12/21 05:21:56;;;;;;;;;;;;;;;-14.24;56.81;96698.16;6295956;28;19920;-68
2022/12/21 05:24:58;;;;;;;;;;;;;;;-13.78;56.41;96689.34;6295292;28;20409;-68
2022/12/21 05:28:01;;;;;;;;;;;;;;;-13.80;56.45;96696.00;6295766;28;20051;-68
2022/12/21 05:31:03;;;;;;;;;;;;;;;-13.57;56.27;96694.06;6295666;28;20278;-68
2022/12/21 05:34:04;;;;;;;;;;;;;;;-13.48;55.74;96699.38;6295661;28;20259;-67
2022/12/21 05:37:05;;;;;;;;;;;;;;;-13.44;55.71;96700.31;6295523;28;19920;-67
2022/12/21 05:40:07;;;;;;;;;;;;;;;-13.41;55.66;96710.53;6293353;28;19928;-67
2022/12/21 05:43:08;;;;;;;;;;;;;;;-13.31;55.68;96711.59;6295717;28;19920;-67
2022/12/21 05:46:12;;;;;;;;;;;;;;;-13.26;55.93;96708.34;6294566;28;20301;-67
2022/12/21 05:49:13;;;;;;;;;;;;;;;-13.37;56.28;96722.41;6294964;28;19927;-68
2022/12/21 05:52:17;;;;;;;;;;;;;;;-13.34;56.24;96725.03;6295134;28;20412;-68
2022/12/21 05:55:20;;;;;;;;;;;;;;;-13.07;55.94;96716.38;6295089;28;19920;-67
2022/12/21 05:58:21;;;;;;;;;;;;;;;-13.20;55.92;96717.75;6294773;28;19920;-67
2022/12/21 06:01:22;;;;;;;;;;;;;;;-13.20;56.55;96711.00;6295296;28;19916;-68
2022/12/21 06:04:23;;;;;;;;;;;;;;;-13.09;56.21;96720.53;6295182;28;19927;-67
2022/12/21 06:07:27;;;;;;;;;;;;;;;-13.04;56.24;96735.03;6298007;28;20015;-68
2022/12/21 06:10:30;;;;;;;;;;;;;;;-13.07;56.21;96719.78;6299269;28;20444;-67
2022/12/21 06:13:31;;;;;;;;;;;;;;;-13.08;56.20;96720.56;6299966;28;19924;-68
2022/12/21 06:16:37;;;;;;;;;;;;;;;-13.09;56.18;96728.16;6298560;28;19920;-68
2022/12/21 06:19:40;;;;;;;;;;;;;;;-13.20;56.12;96736.31;6299667;28;20001;-67
2022/12/21 06:22:41;;;;;;;;;;;;;;;-13.08;56.08;96724.78;6299856;28;19931;-69
2022/12/21 06:25:43;;;;;;;;;;;;;;;-13.06;56.36;96724.00;6299293;28;19943;-69
2022/12/21 06:28:48;;;;;;;;;;;;;;;-12.90;55.88;96735.38;6299276;28;19943;-69
2022/12/21 06:31:50;;;;;;;;;;;;;;;-12.77;55.69;96727.22;6299629;28;19920;-67
2022/12/21 06:34:56;;;;;;;;;;;;;;;-12.81;55.90;96730.50;6299441;28;20298;-67
2022/12/21 06:41:33;;;;;;;;;;;;;;;-12.57;55.93;96739.50;6297810;28;20062;-68
2022/12/21 06:44:34;;;;;;;;;;;;;;;-12.39;55.64;96739.06;6299218;28;19920;-68
2022/12/21 06:47:39;;;;;;;;;;;;;;;-12.19;55.59;96732.72;6299041;28;19920;-67
2022/12/21 06:50:42;;;;;;;;;;;;;;;-11.83;55.14;96732.59;6298637;28;19920;-67
2022/12/21 06:53:45;;;;;;;;;;;;;;;-11.72;54.88;96730.25;6298895;28;20046;-68
2022/12/21 06:56:46;;;;;;;;;;;;;;;-11.49;54.62;96728.16;6297803;28;20418;-67
2022/12/21 06:59:47;;;;;;;;;;;;;;;-11.13;54.32;96739.78;6299099;28;19990;-67
2022/12/21 07:02:48;;;;;;;;;;;;;;;-10.52;53.88;96735.69;6299073;28;19943;-67
2022/12/21 07:05:52;;;;;;;;;;;;;;;-9.74;52.37;96735.84;6299012;28;20421;-68
2022/12/21 07:08:54;;;;;;;;;;;;;;;-8.98;50.87;96737.50;6298786;28;20050;-67
2022/12/21 07:11:57;;;;;;;;;;;;;;;-8.43;49.65;96731.16;6298488;28;19929;-68
2022/12/21 07:14:58;;;;;;;;;;;;;;;-8.22;49.28;96724.44;6297226;28;19920;-67
2022/12/21 07:18:04;;;;;;;;;;;;;;;-8.15;49.12;96737.25;6297635;28;20325;-67
2022/12/21 07:21:06;;;;;;;;;;;;;;;-8.25;47.77;96740.59;6297869;28;19970;-68
2022/12/21 07:24:07;;;;;;;;;;;;;;;-8.47;48.93;96734.50;6297456;28;19920;-68
2022/12/21 07:27:08;;;;;;;;;;;;;;;-8.47;49.63;96728.56;6297918;28;20346;-68
2022/12/21 07:30:13;;;;;;;;;;;;;;;-8.44;48.78;96739.63;6298082;28;19924;-68
2022/12/21 07:33:18;;;;;;;;;;;;;;;-8.13;48.37;96740.66;6298099;28;20309;-68
2022/12/21 07:36:22;;;;;;;;;;;;;;;-7.08;46.91;96730.84;6298047;28;20315;-68
2022/12/21 07:39:25;;;;;;;;;;;;;;;-5.30;43.00;96730.53;6297741;28;19916;-67
2022/12/21 07:42:31;;;;;;;;;;;;;;;-1.92;38.31;96733.53;6297579;28;19920;-69
2022/12/21 07:45:32;;;;;;;;;;;;;;;1.30;33.77;96738.72;6297249;28;19924;-68
2022/12/21 07:48:34;;;;;;;;;;;;;;;3.90;31.10;96735.56;6296962;28;19927;-67
2022/12/21 07:51:35;;;;;;;;;;;;;;;4.37;29.09;96734.53;6297438;28;19920;-68
2022/12/21 07:54:38;;;;;;;;;;;;;;;2.59;30.57;96737.06;6297345;28;20037;-67
2022/12/21 07:57:42;;;;;;;;;;;;;;;3.58;29.83;96745.50;6297105;28;19920;-68
2022/12/21 08:00:43;;;;;;;;;;;;;;;3.97;28.07;96749.22;6297101;28;19939;-67
2022/12/21 08:03:45;;;;;;;;;;;;;;;2.87;28.67;96756.88;6296948;28;20432;-68
2022/12/21 08:06:47;;;;;;;;;;;;;;;1.56;29.63;96753.47;6296737;28;19920;-68
2022/12/21 08:09:48;;;;;;;;;;;;;;;0.30;29.85;96755.38;6296816;28;20251;-68
2022/12/21 08:12:55;;;;;;;;;;;;;;;-0.82;31.53;96750.28;6296988;28;19921;-68
2022/12/21 08:16:00;;;;;;;;;;;;;;;-1.65;33.57;96747.66;6296827;28;19920;-68
2022/12/21 08:19:05;;;;;;;;;;;;;;;-2.46;33.79;96750.75;6296607;28;20325;-68
2022/12/21 08:22:06;;;;;;;;;;;;;;;-3.92;35.60;96744.91;6296804;28;19943;-68
2022/12/21 08:25:09;;;;;;;;;;;;;;;-4.86;37.41;96745.69;6295909;28;19916;-67
2022/12/21 08:28:12;;;;;;;;;;;;;;;-5.45;38.57;96754.53;6296522;28;19920;-68
2022/12/21 08:31:15;;;;;;;;;;;;;;;-5.82;39.29;96746.97;6296046;28;19927;-68
2022/12/21 08:34:18;;;;;;;;;;;;;;;-6.15;39.60;96748.78;6296655;28;19975;-67
2022/12/21 08:37:22;;;;;;;;;;;;;;;-6.65;40.61;96747.09;6296555;28;20394;-67
2022/12/21 08:40:25;;;;;;;;;;;;;;;-6.51;40.19;96744.56;6296104;28;19920;-69
2022/12/21 08:43:32;;;;;;;;;;;;;;;-6.76;40.65;96730.91;6296154;28;19927;-68
2022/12/21 08:46:35;;;;;;;;;;;;;;;-6.74;41.27;96734.28;6296363;28;20386;-68
2022/12/21 08:49:39;;;;;;;;;;;;;;;-6.93;41.94;96738.56;6296148;28;19920;-68
2022/12/21 08:52:41;;;;;;;;;;;;;;;-6.97;41.66;96754.72;6296120;28;19920;-67
2022/12/21 08:55:42;;;;;;;;;;;;;;;-7.23;42.57;96758.09;6295470;28;19978;-68
2022/12/21 08:58:43;;;;;;;;;;;;;;;-7.35;43.14;96770.84;6295893;28;19920;-68
2022/12/21 09:01:50;;;;;;;;;;;;;;;-7.30;42.33;96761.50;6294579;28;19920;-69
2022/12/21 09:05:03;;;;;;;;;;;;;;;-7.42;42.71;96769.09;6278710;28;20503;-68
2022/12/21 09:08:04;;;;;;;;;;;;;;;-7.35;43.58;96758.06;6293650;28;20302;-68
2022/12/21 09:11:09;;;;;;;;;;;;;;;-7.26;43.69;96762.34;6294547;28;20314;-68
2022/12/21 09:14:10;;;;;;;;;;;;;;;-7.35;43.08;96763.16;6296104;28;19931;-68
2022/12/21 09:17:11;;;;;;;;;;;;;;;-7.11;43.30;96769.19;6295028;28;20401;-68
2022/12/21 09:20:12;;;;;;;;;;;;;;;-7.12;43.10;96770.91;6295518;28;20385;-69
2022/12/21 09:23:16;;;;;;;;;;;;;;;-7.23;43.44;96772.56;6295830;28;19920;-69
2022/12/21 09:26:22;;;;;;;;;;;;;;;-7.32;43.70;96773.41;6294991;28;20428;-69
2022/12/21 09:29:26;;;;;;;;;;;;;;;-7.60;44.64;96779.25;6295585;28;20408;-69
2022/12/21 09:32:29;;;;;;;;;;;;;;;-7.64;44.80;96787.72;6295926;28;19920;-68
2022/12/21 09:35:34;;;;;;;;;;;;;;;-7.78;44.83;96803.03;6295063;28;20378;-67
2022/12/21 09:38:35;;;;;;;;;;;;;;;-7.87;45.19;96795.28;6295313;28;20322;-69
2022/12/21 09:41:43;;;;;;;;;;;;;;;-7.76;45.51;96791.94;6296926;28;19927;-68
2022/12/21 09:44:52;;;;;;;;;;;;;;;-7.93;45.60;96799.50;6300745;28;19924;-67
2022/12/21 09:48:04;;;;;;;;;;;;;;;-8.01;45.54;96795.19;6300107;28;20270;-70
2022/12/21 09:51:09;;;;;;;;;;;;;;;-8.14;45.48;96805.31;6299679;28;19920;-69
2022/12/21 09:54:19;;;;;;;;;;;;;;;-8.13;45.67;96807.03;6300275;28;19927;-69
2022/12/21 09:57:25;;;;;;;;;;;;;;;-8.24;45.82;96803.53;6299811;28;19931;-68
2022/12/21 10:00:34;;;;;;;;;;;;;;;-8.35;45.93;96812.81;6300333;28;19920;-69
2022/12/21 10:03:45;;;;;;;;;;;;;;;-8.21;46.35;96818.03;6298833;28;20015;-68
2022/12/21 10:06:49;;;;;;;;;;;;;;;-8.44;46.47;96820.44;6299153;28;19928;-69
2022/12/21 10:10:10;;;;;;;;;;;;;;;-8.32;46.56;96814.53;6300174;28;20484;-69
2022/12/21 10:13:29;;;;;;;;;;;;;;;-8.43;46.58;96817.06;6299735;28;20022;-68
2022/12/21 10:16:35;;;;;;;;;;;;;;;-8.42;46.65;96813.66;6299857;28;19927;-69
2022/12/21 10:19:56;;;;;;;;;;;;;;;-8.36;46.78;96824.72;6299701;28;19994;-69
2022/12/21 10:23:07;;;;;;;;;;;;;;;-8.46;46.62;96817.03;6299849;28;19921;-68
2022/12/21 10:26:13;;;;;;;;;;;;;;;-8.49;46.66;96824.63;6299576;28;19924;-70
2022/12/21 10:29:19;;;;;;;;;;;;;;;-8.57;47.35;96833.94;6298899;28;19927;-69
2022/12/21 10:32:25;;;;;;;;;;;;;;;-8.51;47.10;96839.09;6299292;28;20373;-68
2022/12/21 10:35:35;;;;;;;;;;;;;;;-8.49;46.58;96843.38;6298288;28;19916;-70
2022/12/21 10:38:41;;;;;;;;;;;;;;;-8.61;46.75;96844.09;6298929;28;19924;-68
2022/12/21 10:41:50;;;;;;;;;;;;;;;-8.57;46.88;96849.25;6299170;28;19917;-68
2022/12/21 10:44:56;;;;;;;;;;;;;;;-8.53;46.87;96850.97;6299188;28;19927;-69
2022/12/21 10:47:59;;;;;;;;;;;;;;;-8.60;46.63;96850.06;6298887;28;19927;-70
2022/12/21 10:51:14;;;;;;;;;;;;;;;-8.68;46.84;96852.53;6298981;28;19920;-68
2022/12/21 10:54:24;;;;;;;;;;;;;;;-8.66;47.04;96855.97;6297442;28;19924;-70
2022/12/21 10:57:27;;;;;;;;;;;;;;;-8.60;47.19;96858.56;6298595;28;19928;-68
2022/12/21 11:00:30;;;;;;;;;;;;;;;-8.78;47.52;96871.13;6298800;28;19920;-69
2022/12/21 11:03:37;;;;;;;;;;;;;;;-8.84;47.57;96871.06;6298906;28;19927;-70
2022/12/21 11:06:53;;;;;;;;;;;;;;;-8.93;47.73;96870.97;6298075;28;20314;-69
2022/12/21 11:09:58;;;;;;;;;;;;;;;-8.99;47.85;96870.91;6298811;28;19920;-67
2022/12/21 11:13:03;;;;;;;;;;;;;;;-8.98;47.58;96883.66;6298107;28;19920;-69
2022/12/21 11:16:07;;;;;;;;;;;;;;;-9.01;48.09;96888.72;6298796;28;19916;-69
2022/12/21 11:19:10;;;;;;;;;;;;;;;-9.11;48.50;96890.31;6298420;28;20310;-69
2022/12/21 11:22:15;;;;;;;;;;;;;;;-9.05;48.71;96895.50;6298221;28;19924;-68
2022/12/21 11:25:21;;;;;;;;;;;;;;;-9.08;48.66;96895.47;6297547;28;20401;-69
2022/12/21 11:28:22;;;;;;;;;;;;;;;-9.16;48.76;96907.25;6297942;28;19924;-70
2022/12/21 11:31:29;;;;;;;;;;;;;;;-9.32;49.30;96911.28;6298036;28;19920;-68
2022/12/21 11:34:36;;;;;;;;;;;;;;;-9.41;49.32;96917.97;6298084;28;19955;-69
2022/12/21 11:37:37;;;;;;;;;;;;;;;-9.41;49.42;96916.25;6297353;28;20305;-68
2022/12/21 11:40:38;;;;;;;;;;;;;;;-9.51;49.63;96927.16;6297234;28;19924;-69
2022/12/21 11:43:46;;;;;;;;;;;;;;;-9.57;49.35;96934.69;6297383;28;19925;-70
2022/12/21 11:47:10;;;;;;;;;;;;;;;-9.53;49.41;96932.22;6297652;28;19919;-70
2022/12/21 11:50:17;;;;;;;;;;;;;;;-9.64;49.39;96931.22;6266048;28;20018;-69
2022/12/21 11:53:34;;;;;;;;;;;;;;;-9.64;49.62;96940.56;6296389;28;19920;-70
2022/12/21 11:56:40;;;;;;;;;;;;;;;-9.65;49.21;96939.72;6297606;28;19920;-70
2022/12/21 11:59:44;;;;;;;;;;;;;;;-9.75;49.37;96940.38;6297513;28;20062;-68
2022/12/21 12:02:45;;;;;;;;;;;;;;;-9.94;49.61;96950.25;6297022;28;20018;-69
2022/12/21 12:05:48;;;;;;;;;;;;;;;-10.00;49.84;96957.81;6297005;28;19920;-69
2022/12/21 12:09:17;;;;;;;;;;;;;;;-10.01;49.96;96962.88;6297163;28;19978;-69
2022/12/21 12:12:39;;;;;;;;;;;;;;;-10.02;50.24;96968.78;6297026;28;19920;-69
2022/12/21 12:15:51;;;;;;;;;;;;;;;-10.15;50.11;96970.28;6296952;28;19936;-69
2022/12/21 12:19:18;;;;;;;;;;;;;;;-10.30;50.52;96972.56;6297133;28;20297;-69
2022/12/21 12:22:40;;;;;;;;;;;;;;;-10.60;50.77;96980.50;6289178;28;19927;-68
2022/12/21 12:26:00;;;;;;;;;;;;;;;-10.83;51.24;96985.16;6296462;28;20066;-67
2022/12/21 12:29:04;;;;;;;;;;;;;;;-10.85;51.39;96988.50;6296632;28;19997;-70
2022/12/21 12:32:07;;;;;;;;;;;;;;;-10.92;51.59;96996.84;6296504;28;19924;-69
2022/12/21 12:35:17;;;;;;;;;;;;;;;-10.91;51.76;97013.78;6296085;28;19931;-69
2022/12/21 12:38:32;;;;;;;;;;;;;;;-11.23;51.99;97014.81;6296294;28;19921;-70
2022/12/21 12:41:51;;;;;;;;;;;;;;;-11.42;52.20;97008.44;6296262;28;19920;-69
2022/12/21 12:45:06;;;;;;;;;;;;;;;-11.51;52.41;97013.31;6296153;28;19927;-69
2022/12/21 12:48:20;;;;;;;;;;;;;;;-11.69;52.68;97018.81;6296064;28;20058;-68
2022/12/21 12:51:28;;;;;;;;;;;;;;;-11.86;52.88;97019.31;6296276;28;19920;-68
2022/12/21 12:54:48;;;;;;;;;;;;;;;-11.68;53.03;97033.22;6295961;28;20007;-68
2022/12/21 12:57:52;;;;;;;;;;;;;;;-11.88;52.85;97033.63;6296248;28;19930;-68
2022/12/21 13:01:11;;;;;;;;;;;;;;;-12.03;53.10;97038.31;6295883;28;19927;-68
2022/12/21 13:04:31;;;;;;;;;;;;;;;-12.14;53.52;97038.06;6295897;28;19920;-68
2022/12/21 13:07:35;;;;;;;;;;;;;;;-12.16;53.06;97047.28;6295742;28;19920;-68
2022/12/21 13:10:38;;;;;;;;;;;;;;;-12.25;53.42;97052.97;6295927;28;19946;-68
2022/12/21 13:13:43;;;;;;;;;;;;;;;-12.27;53.75;97054.59;6295263;28;20394;-68
2022/12/21 13:16:55;;;;;;;;;;;;;;;-12.35;53.36;97058.59;6294236;28;20026;-68
2022/12/21 13:20:00;;;;;;;;;;;;;;;-12.31;53.51;97078.19;6295769;28;19924;-68
2022/12/21 13:23:04;;;;;;;;;;;;;;;-12.34;53.48;97078.09;6295404;28;19927;-69
2022/12/21 13:26:10;;;;;;;;;;;;;;;-12.44;53.68;97078.66;6296171;28;19920;-68
2022/12/21 13:29:14;;;;;;;;;;;;;;;-12.53;53.56;97088.53;6295652;28;20081;-69
2022/12/21 13:32:17;;;;;;;;;;;;;;;-12.45;53.58;97102.28;6295236;28;19921;-68
2022/12/21 13:35:46;;;;;;;;;;;;;;;-12.28;53.46;97098.53;6295569;28;19916;-68
2022/12/21 13:39:12;;;;;;;;;;;;;;;-12.29;53.21;97095.94;6295745;28;20393;-69
2022/12/21 13:42:19;;;;;;;;;;;;;;;-12.32;53.45;97099.25;6295601;28;20013;-68
2022/12/21 13:45:39;;;;;;;;;;;;;;;-12.24;53.48;97104.56;6295548;28;20304;-68
2022/12/21 13:48:45;;;;;;;;;;;;;;;-12.17;53.68;97108.09;6294931;28;19920;-69
2022/12/21 13:51:55;;;;;;;;;;;;;;;-12.22;53.26;97113.06;6295179;28;19932;-69
2022/12/21 13:55:02;;;;;;;;;;;;;;;-12.40;53.37;97118.47;6295210;28;19920;-68
2022/12/21 13:58:03;;;;;;;;;;;;;;;-12.52;53.30;97118.13;6294407;28;20457;-68
2022/12/21 14:01:23;;;;;;;;;;;;;;;-12.64;54.06;97102.59;6294525;28;19920;-69
2022/12/21 14:04:26;;;;;;;;;;;;;;;-12.79;54.04;97098.78;6295167;28;20293;-69
2022/12/21 14:07:48;;;;;;;;;;;;;;;-12.86;54.46;97096.88;6295174;28;19920;-68
2022/12/21 14:10:51;;;;;;;;;;;;;;;-12.93;54.73;97105.13;6295127;28;19924;-69
2022/12/21 14:14:01;;;;;;;;;;;;;;;-13.05;54.70;97104.72;6294745;28;20271;-67
2022/12/21 14:17:10;;;;;;;;;;;;;;;-12.97;54.45;97108.38;6295019;28;19963;-68
2022/12/21 14:20:20;;;;;;;;;;;;;;;-13.16;54.60;97120.47;6294745;28;20389;-70
2022/12/21 14:23:28;;;;;;;;;;;;;;;-13.36;55.11;97113.94;6294798;28;20421;-68
2022/12/21 14:26:38;;;;;;;;;;;;;;;-13.45;54.88;97133.91;6294621;28;19923;-69
2022/12/21 14:29:42;;;;;;;;;;;;;;;-13.58;54.92;97133.50;6299134;28;19935;-69
2022/12/21 14:32:48;;;;;;;;;;;;;;;-13.58;55.14;97132.66;6299404;28;20386;-69
2022/12/21 14:36:10;;;;;;;;;;;;;;;-13.45;55.42;97149.09;6299219;28;19924;-69
2022/12/21 14:39:27;;;;;;;;;;;;;;;-13.60;54.97;97150.31;6299078;28;19920;-68
2022/12/21 14:42:40;;;;;;;;;;;;;;;-13.79;55.02;97137.84;6299211;28;19997;-68
2022/12/21 14:45:44;;;;;;;;;;;;;;;-13.74;55.29;97141.41;6298135;28;19920;-68
2022/12/21 14:49:01;;;;;;;;;;;;;;;-13.67;55.32;97152.56;6299056;28;19920;-68
2022/12/21 14:52:17;;;;;;;;;;;;;;;-13.80;55.03;97166.50;6298951;28;19924;-68
2022/12/21 14:55:35;;;;;;;;;;;;;;;-13.84;55.39;97174.78;6297543;28;20302;-69
2022/12/21 14:58:37;;;;;;;;;;;;;;;-13.96;55.65;97164.25;6298604;28;20306;-68
2022/12/21 15:01:41;;;;;;;;;;;;;;;-14.16;55.46;97177.03;6298178;28;19920;-69
2022/12/21 15:04:44;;;;;;;;;;;;;;;-14.25;55.75;97176.72;6298404;28;19931;-69
2022/12/21 15:08:03;;;;;;;;;;;;;;;-14.32;56.18;97187.38;6296731;28;20058;-68
2022/12/21 15:11:12;;;;;;;;;;;;;;;-14.39;56.41;97188.00;6297084;28;19920;-69
2022/12/21 15:14:28;;;;;;;;;;;;;;;-14.46;56.30;97199.56;6297772;28;19925;-68
2022/12/21 15:17:32;;;;;;;;;;;;;;;-14.44;56.73;97204.66;6298245;28;20310;-68
2022/12/21 15:20:44;;;;;;;;;;;;;;;-14.48;56.52;97204.53;6298020;28;19935;-68
2022/12/21 15:23:50;;;;;;;;;;;;;;;-14.54;56.59;97209.38;6298285;28;20018;-69
2022/12/21 15:27:00;;;;;;;;;;;;;;;-14.50;56.81;97218.75;6297923;28;19932;-69
2022/12/21 15:30:16;;;;;;;;;;;;;;;-14.52;56.48;97228.00;6298057;28;19920;-69
2022/12/21 15:33:22;;;;;;;;;;;;;;;-14.61;56.65;97231.84;6298031;28;19921;-67
2022/12/21 15:36:30;;;;;;;;;;;;;;;-14.72;56.32;97236.47;6298409;28;19927;-68
2022/12/21 15:39:38;;;;;;;;;;;;;;;-14.69;56.67;97234.06;6296734;28;20054;-68
2022/12/21 15:42:46;;;;;;;;;;;;;;;-14.80;56.51;97241.25;6298141;28;19927;-68
2022/12/21 15:46:17;;;;;;;;;;;;;;;-14.89;56.64;97245.03;6296094;28;19916;-69
2022/12/21 15:49:29;;;;;;;;;;;;;;;-15.09;56.78;97247.63;6283947;28;19920;-67
2022/12/21 15:52:41;;;;;;;;;;;;;;;-15.22;56.84;97255.53;6297663;28;20567;-68
2022/12/21 15:55:43;;;;;;;;;;;;;;;-15.33;57.10;97256.75;6297339;28;20006;-68
2022/12/21 15:58:44;;;;;;;;;;;;;;;-15.40;57.27;97264.06;6297611;28;19920;-69
2022/12/21 16:01:49;;;;;;;;;;;;;;;-15.39;57.30;97275.88;6297324;28;20297;-68
2022/12/21 16:04:52;;;;;;;;;;;;;;;-15.43;57.52;97276.53;6297566;28;19916;-68
2022/12/21 16:07:59;;;;;;;;;;;;;;;-15.49;57.36;97281.31;6296233;28;19924;-68
2022/12/21 16:11:05;;;;;;;;;;;;;;;-15.56;57.36;97278.50;6297173;28;19966;-68
2022/12/21 16:14:15;;;;;;;;;;;;;;;-15.62;57.39;97281.63;6297189;28;20396;-69
2022/12/21 16:17:22;;;;;;;;;;;;;;;-15.57;57.34;97292.75;6297110;28;19920;-68